Airfield :
LOGIN :

Register | Disclaimer

   EN    FR    IT 

 










Legend :    VFR   Marginal VFR   IFR   Intensive IFR   Very Intensive IFR
Visi :
Ceiling :
>= 8 km
>= 3000ft
5 to 8 km
1000 to 3000 ft
1500m to 5 km
500 to 1000 ft
800 to 1500m
200 to 500 ft
< 800m
< 200 ft
Symbols :   Thunderstorms  Fog  Heavy snow  Heavy precipitations  Wind > 20 kt
SIGMETs :     Misc.  Thunderstorms  Icing  Turbulence  Mountain Waves  Volcanic Ashes







- Airport Elevation : 353 ft
- IATA code : ZAG


LDZA - Zagreb Pleso

CURRENT METAR :
  • 141830Z 16004KT 9999 FEW037 09/05 Q1004 BECMG 23006KT

EXPIRED METARs :
  • 141800Z 17004KT 9999 FEW037 09/06 Q1004 BECMG 23006KT
  • 141730Z 17002KT 9999 BKN037 BKN045 09/07 Q1004 BECMG 23006KT
  • 141700Z 17003KT 9999 -RA FEW018 BKN036 09/07 Q1004 BECMG 23006KT
  • 141630Z 21006KT 180V240 9999 -RA FEW018 BKN045 10/06 Q1005 NOSIG
  • 141600Z 20009KT 170V230 9999 BKN047 12/05 Q1005 NOSIG

TAF TAF LDZA
Valid from the 14 at 18:00 until the 15 at 18:00 UTC


141725Z 1418/1518 23008KT 9999 BKN030 TX13/1513Z TN05/1500Z
PROB30
TEMPO 1418/1500 RA BKN014
PROB40
TEMPO 1500/1509 23015G25KT
PROB30
TEMPO 1511/1516 SHRA FEW020TCU BKN025
BECMG 1512/1514 VRB02KT
PROB40
TEMPO 1516/1518 RA
ATIS : +385 1 6-259-214
No reported NOTAMs for that airfield.



MET'MAP, your aeronautical weather chart ! - Copyright ORBIFLY December 2007 - Disclaimer

ORBIFLY MET'MAP TEAM :

Programming & Development : Alexandra Zaïnal
Concept & Development : Baudouin d'Aumeries
Co-Development & Prog : Marc-Olivier Méhu
Technical & hardware support : Manuel Goepfert

Contact : metmap@orbifly.com




SOURCES & CREDITS :

   NOAA